Time;durP1;ratioP1;P1;durP2;ratioP2;P2;SDS_P1;SDS_P2;PMS_P1;PMS_P2;Temp;Humidity;BMP_temperature;BMP_pressure;BME280_temperature;BME280_humidity;BME280_pressure;Samples;Min_cycle;Max_cycle;Signal;HPM_P1;HPM_P2
2024/02/09 00:00:07;;;;;;;25.95;15.40;;;;;;;;;;4988422;28;20140;-76
2024/02/09 00:02:35;;;;;;;23.20;15.40;;;;;;;;;;4993336;28;20460;-75
2024/02/09 00:05:02;;;;;;;22.00;14.98;;;;;;;;;;4979945;28;20052;-74
2024/02/09 00:07:28;;;;;;;22.63;15.20;;;;;;;;;;4993522;28;20462;-75
2024/02/09 00:09:55;;;;;;;24.92;15.18;;;;;;;;;;4993466;28;20052;-75
2024/02/09 00:12:21;;;;;;;22.60;14.60;;;;;;;;;;4988752;28;20054;-74
2024/02/09 00:14:48;;;;;;;23.35;14.63;;;;;;;;;;4999219;28;20054;-74
2024/02/09 00:17:14;;;;;;;16.75;11.95;;;;;;;;;;4999552;28;20077;-75
2024/02/09 00:19:41;;;;;;;20.60;14.05;;;;;;;;;;4992890;28;20064;-75
2024/02/09 00:22:07;;;;;;;21.58;14.15;;;;;;;;;;5006706;28;20049;-74
2024/02/09 00:24:35;;;;;;;19.73;14.13;;;;;;;;;;4995181;28;20046;-75
2024/02/09 00:27:04;;;;;;;23.05;13.77;;;;;;;;;;4998688;28;20068;-75
2024/02/09 00:29:31;;;;;;;21.55;13.25;;;;;;;;;;4989600;28;20056;-75
2024/02/09 00:31:57;;;;;;;21.65;13.65;;;;;;;;;;4996858;28;20052;-76
2024/02/09 00:34:23;;;;;;;21.13;12.70;;;;;;;;;;5004100;28;20419;-76
2024/02/09 00:36:50;;;;;;;19.33;13.23;;;;;;;;;;4984078;28;20101;-76
2024/02/09 00:39:16;;;;;;;19.50;13.02;;;;;;;;;;4988587;28;20054;-75
2024/02/09 00:41:43;;;;;;;22.35;13.40;;;;;;;;;;4997643;28;20052;-76
2024/02/09 00:44:09;;;;;;;20.58;12.82;;;;;;;;;;5004062;28;20049;-75
2024/02/09 00:46:42;;;;;;;17.23;10.40;;;;;;;;;;5000709;28;20046;-75
2024/02/09 00:49:09;;;;;;;13.93;8.15;;;;;;;;;;4990719;28;20046;-76
2024/02/09 00:51:36;;;;;;;20.95;9.80;;;;;;;;;;4981362;28;20108;-75
2024/02/09 00:54:02;;;;;;;18.80;9.73;;;;;;;;;;5004905;28;20407;-75
2024/02/09 00:56:29;;;;;;;16.80;9.82;;;;;;;;;;5000433;28;20049;-75
2024/02/09 00:58:55;;;;;;;17.30;9.48;;;;;;;;;;4990850;28;20050;-75
2024/02/09 01:01:21;;;;;;;15.75;9.05;;;;;;;;;;4991177;28;20058;-76
2024/02/09 01:03:48;;;;;;;16.48;9.57;;;;;;;;;;4998873;28;20073;-75
2024/02/09 01:06:14;;;;;;;19.40;10.38;;;;;;;;;;5003422;28;20058;-75
2024/02/09 01:08:41;;;;;;;17.33;10.60;;;;;;;;;;4977815;28;20451;-74
2024/02/09 01:11:11;;;;;;;19.85;10.23;;;;;;;;;;4997388;28;20082;-75
2024/02/09 02:47:05;;;;;;;18.58;4.70;;;;;;;;;;5005238;28;20057;-77
2024/02/09 03:06:02;;;;;;;14.80;4.07;;;;;;;;;;4981707;28;20575;-76
2024/02/09 03:08:29;;;;;;;17.45;5.30;;;;;;;;;;4983744;28;20058;-76
2024/02/09 03:11:13;;;;;;;13.48;4.47;;;;;;;;;;4988249;28;20056;-76
2024/02/09 03:13:42;;;;;;;15.68;4.10;;;;;;;;;;4964013;28;20136;-76
2024/02/09 03:16:08;;;;;;;12.70;4.53;;;;;;;;;;4986845;28;20601;-75
2024/02/09 03:18:35;;;;;;;13.38;4.78;;;;;;;;;;4983724;28;20054;-76
2024/02/09 03:21:01;;;;;;;13.15;4.60;;;;;;;;;;4986079;28;20085;-76
2024/02/09 03:23:28;;;;;;;13.63;4.88;;;;;;;;;;4978785;28;20085;-76
2024/02/09 03:25:55;;;;;;;14.07;4.10;;;;;;;;;;4994160;28;20964;-77
2024/02/09 03:28:21;;;;;;;11.18;3.50;;;;;;;;;;5003417;28;20064;-77
2024/02/09 03:30:48;;;;;;;12.52;4.20;;;;;;;;;;4978005;28;21175;-77
2024/02/09 03:33:14;;;;;;;13.30;4.97;;;;;;;;;;4980903;28;20101;-77
2024/02/09 03:35:41;;;;;;;13.70;4.38;;;;;;;;;;4996358;28;20060;-77
2024/02/09 03:38:08;;;;;;;13.15;4.65;;;;;;;;;;5000237;28;20132;-77
2024/02/09 03:40:34;;;;;;;14.75;4.15;;;;;;;;;;5000560;28;20093;-77
2024/02/09 03:43:00;;;;;;;9.48;3.50;;;;;;;;;;4961846;28;20054;-77
2024/02/09 03:45:28;;;;;;;8.32;3.35;;;;;;;;;;4997258;28;20058;-77
2024/02/09 03:47:56;;;;;;;12.77;3.95;;;;;;;;;;4974770;28;20128;-77
2024/02/09 03:50:23;;;;;;;14.65;3.78;;;;;;;;;;4986695;28;20097;-77
2024/02/09 03:52:49;;;;;;;8.85;3.78;;;;;;;;;;4995134;28;20129;-76
2024/02/09 03:55:17;;;;;;;15.70;4.90;;;;;;;;;;4983903;28;20046;-77
2024/02/09 03:57:47;;;;;;;13.50;5.15;;;;;;;;;;4974518;28;20048;-76
2024/02/09 04:00:15;;;;;;;11.10;3.85;;;;;;;;;;4987209;28;20047;-76
2024/02/09 04:02:43;;;;;;;9.50;3.95;;;;;;;;;;4985328;28;20053;-76
2024/02/09 04:05:09;;;;;;;12.20;4.00;;;;;;;;;;4988748;28;20057;-76
2024/02/09 04:07:36;;;;;;;10.77;3.83;;;;;;;;;;4993139;28;20085;-76
2024/02/09 04:10:02;;;;;;;10.40;4.68;;;;;;;;;;4995196;28;20050;-76
2024/02/09 04:12:39;;;;;;;12.15;4.28;;;;;;;;;;4977972;28;20078;-75
2024/02/09 04:15:06;;;;;;;9.77;3.50;;;;;;;;;;4997677;28;20562;-74
2024/02/09 04:17:32;;;;;;;9.00;3.80;;;;;;;;;;4982530;28;20057;-75
2024/02/09 04:19:59;;;;;;;7.05;3.53;;;;;;;;;;4990873;28;20129;-74
2024/02/09 04:22:27;;;;;;;11.27;3.85;;;;;;;;;;4993457;28;20053;-74
2024/02/09 04:24:54;;;;;;;10.75;3.53;;;;;;;;;;4987986;28;20133;-74
2024/02/09 04:27:21;;;;;;;8.48;3.28;;;;;;;;;;4983546;28;20120;-74
2024/02/09 04:29:47;;;;;;;9.02;2.97;;;;;;;;;;4986036;28;20042;-74
2024/02/09 04:32:13;;;;;;;6.97;2.95;;;;;;;;;;4996736;28;20045;-74
2024/02/09 04:34:40;;;;;;;8.55;3.65;;;;;;;;;;4978453;28;20133;-74
2024/02/09 04:37:06;;;;;;;10.18;3.42;;;;;;;;;;4985776;28;20129;-74
2024/02/09 04:39:33;;;;;;;8.88;3.20;;;;;;;;;;5002692;28;20476;-74
2024/02/09 04:41:59;;;;;;;10.52;3.38;;;;;;;;;;4981965;28;20451;-74
2024/02/09 04:44:26;;;;;;;8.45;3.28;;;;;;;;;;4997867;28;20504;-75
2024/02/09 04:46:52;;;;;;;10.82;2.85;;;;;;;;;;4967478;28;21031;-75
2024/02/09 04:49:20;;;;;;;9.20;3.00;;;;;;;;;;5006196;28;20100;-76
2024/02/09 04:51:47;;;;;;;8.75;3.50;;;;;;;;;;5002932;28;20527;-76
2024/02/09 04:54:14;;;;;;;6.97;2.40;;;;;;;;;;4974861;28;20054;-76
2024/02/09 04:56:41;;;;;;;5.95;3.45;;;;;;;;;;4994135;28;20073;-76
2024/02/09 04:59:07;;;;;;;10.00;2.80;;;;;;;;;;5000782;28;20141;-76
2024/02/09 05:01:38;;;;;;;10.63;3.72;;;;;;;;;;5006664;28;20084;-76
2024/02/09 05:04:06;;;;;;;8.02;2.90;;;;;;;;;;5005318;28;20447;-75
2024/02/09 05:06:33;;;;;;;5.17;2.50;;;;;;;;;;5008557;28;20062;-75
2024/02/09 05:09:00;;;;;;;7.53;2.83;;;;;;;;;;5009046;28;20045;-75
2024/02/09 05:11:28;;;;;;;7.80;2.90;;;;;;;;;;4982982;28;20081;-75
2024/02/09 05:13:55;;;;;;;6.75;2.80;;;;;;;;;;4986547;28;20050;-74
2024/02/09 05:16:22;;;;;;;7.07;3.00;;;;;;;;;;4995483;28;20388;-74
2024/02/09 05:18:50;;;;;;;4.63;2.63;;;;;;;;;;5003337;28;20054;-74
2024/02/09 05:21:17;;;;;;;5.77;2.73;;;;;;;;;;5006515;28;20508;-74
2024/02/09 05:23:44;;;;;;;7.25;2.92;;;;;;;;;;5000041;28;20401;-75
2024/02/09 05:26:10;;;;;;;5.25;2.60;;;;;;;;;;4989282;28;20046;-75
2024/02/09 05:28:40;;;;;;;6.18;2.50;;;;;;;;;;4984548;28;20085;-75
2024/02/09 05:31:13;;;;;;;8.55;2.70;;;;;;;;;;4988691;28;20108;-75
2024/02/09 05:33:40;;;;;;;7.38;2.58;;;;;;;;;;5002304;28;20060;-75
2024/02/09 05:36:07;;;;;;;7.45;2.63;;;;;;;;;;4989624;28;20062;-76
2024/02/09 05:38:35;;;;;;;7.40;3.05;;;;;;;;;;4987552;28;20472;-75
2024/02/09 05:41:02;;;;;;;7.80;2.92;;;;;;;;;;4980617;28;20143;-75
2024/02/09 05:43:30;;;;;;;7.75;2.72;;;;;;;;;;5003732;28;20042;-76
2024/02/09 05:45:56;;;;;;;6.10;2.85;;;;;;;;;;4984658;28;20100;-75
2024/02/09 05:48:23;;;;;;;7.88;2.70;;;;;;;;;;4988215;28;20266;-76
2024/02/09 05:50:49;;;;;;;9.48;2.92;;;;;;;;;;4996035;28;21190;-76
2024/02/09 05:53:17;;;;;;;5.90;2.42;;;;;;;;;;4980585;28;20133;-75
2024/02/09 05:55:45;;;;;;;5.45;2.72;;;;;;;;;;4993810;28;20121;-76
2024/02/09 05:58:12;;;;;;;7.37;2.30;;;;;;;;;;4986925;28;20056;-75
2024/02/09 06:00:38;;;;;;;7.00;2.55;;;;;;;;;;5002176;28;20066;-76
2024/02/09 06:03:08;;;;;;;6.22;2.58;;;;;;;;;;4989807;28;20061;-76
2024/02/09 06:05:38;;;;;;;6.78;3.25;;;;;;;;;;4988952;28;20518;-76
2024/02/09 06:08:08;;;;;;;4.63;2.65;;;;;;;;;;4994318;28;20617;-76
2024/02/09 06:10:34;;;;;;;11.10;3.08;;;;;;;;;;4983759;28;20046;-76
2024/02/09 06:13:01;;;;;;;5.13;2.20;;;;;;;;;;4971727;28;20230;-76
2024/02/09 06:15:28;;;;;;;5.72;2.42;;;;;;;;;;5001487;28;20042;-76
2024/02/09 06:17:56;;;;;;;6.10;2.40;;;;;;;;;;4993255;28;20100;-76
2024/02/09 06:20:24;;;;;;;6.10;2.30;;;;;;;;;;5001675;28;20140;-76
2024/02/09 06:22:51;;;;;;;8.68;2.33;;;;;;;;;;4985425;28;20054;-76
2024/02/09 06:25:17;;;;;;;4.25;2.60;;;;;;;;;;4985827;28;20049;-76
2024/02/09 06:27:45;;;;;;;8.60;2.50;;;;;;;;;;4996490;28;20105;-76
2024/02/09 06:30:12;;;;;;;6.82;2.25;;;;;;;;;;5006732;28;20081;-75
2024/02/09 06:32:41;;;;;;;6.28;2.15;;;;;;;;;;4988524;28;20097;-74
2024/02/09 06:35:08;;;;;;;9.05;2.10;;;;;;;;;;4987073;28;20100;-76
2024/02/09 06:37:34;;;;;;;7.28;2.53;;;;;;;;;;5001651;28;20124;-76
2024/02/09 06:40:01;;;;;;;8.48;2.13;;;;;;;;;;5000575;28;20069;-76
2024/02/09 06:42:28;;;;;;;5.13;2.13;;;;;;;;;;4992446;28;20054;-76
2024/02/09 06:44:54;;;;;;;5.53;2.22;;;;;;;;;;4982112;28;20054;-76
2024/02/09 06:47:21;;;;;;;5.78;2.15;;;;;;;;;;4986170;28;20405;-76
2024/02/09 06:49:47;;;;;;;3.05;1.85;;;;;;;;;;5001741;28;20054;-75
2024/02/09 06:52:14;;;;;;;5.05;1.98;;;;;;;;;;5004663;28;20226;-76
2024/02/09 06:54:40;;;;;;;5.38;1.88;;;;;;;;;;5000314;28;20045;-76
2024/02/09 06:57:07;;;;;;;10.88;2.28;;;;;;;;;;5009543;28;20046;-76
2024/02/09 06:59:33;;;;;;;5.35;2.17;;;;;;;;;;4993311;28;20050;-76
2024/02/09 07:02:01;;;;;;;5.35;2.05;;;;;;;;;;4967616;28;20412;-75
2024/02/09 07:04:27;;;;;;;6.55;2.28;;;;;;;;;;4991070;28;20061;-76
2024/02/09 07:06:54;;;;;;;6.32;2.35;;;;;;;;;;4992243;28;20074;-76
2024/02/09 07:09:21;;;;;;;4.63;1.90;;;;;;;;;;5001394;28;20050;-76
2024/02/09 07:12:03;;;;;;;8.13;2.70;;;;;;;;;;5005569;28;20048;-76
2024/02/09 07:14:31;;;;;;;4.40;1.90;;;;;;;;;;4999371;28;20112;-75
2024/02/09 07:16:57;;;;;;;5.05;1.80;;;;;;;;;;4985488;28;20050;-76
2024/02/09 07:19:23;;;;;;;6.60;2.35;;;;;;;;;;4997070;28;20427;-75
2024/02/09 07:21:50;;;;;;;8.05;2.22;;;;;;;;;;5000425;28;20648;-76
2024/02/09 07:24:16;;;;;;;7.28;2.25;;;;;;;;;;4983354;28;20076;-76
2024/02/09 07:26:43;;;;;;;7.20;2.30;;;;;;;;;;4978332;28;20473;-76
2024/02/09 07:29:09;;;;;;;6.30;2.30;;;;;;;;;;4989196;28;20041;-76
2024/02/09 07:31:36;;;;;;;5.95;2.10;;;;;;;;;;4999533;28;20061;-76
2024/02/09 07:34:02;;;;;;;6.50;2.13;;;;;;;;;;5006148;28;20196;-76
2024/02/09 07:36:29;;;;;;;7.57;2.72;;;;;;;;;;4995986;28;20057;-75
2024/02/09 07:38:57;;;;;;;4.07;1.80;;;;;;;;;;5003579;28;20132;-76
2024/02/09 07:41:23;;;;;;;9.20;2.70;;;;;;;;;;4999864;28;20121;-75
2024/02/09 07:43:50;;;;;;;7.07;2.40;;;;;;;;;;4982538;28;20141;-77
2024/02/09 07:46:16;;;;;;;4.03;2.33;;;;;;;;;;4993605;28;20050;-78
2024/02/09 07:48:44;;;;;;;7.50;2.90;;;;;;;;;;4969627;28;20053;-77
2024/02/09 07:51:11;;;;;;;9.23;2.60;;;;;;;;;;4994425;28;20049;-76
2024/02/09 07:53:40;;;;;;;5.85;2.72;;;;;;;;;;4998408;28;20437;-77
2024/02/09 07:56:06;;;;;;;;;;;;;;;;;;4993483;28;20062;-77
2024/02/09 07:58:32;;;;;;;8.70;3.30;;;;;;;;;;4995790;28;20011;-76
2024/02/09 08:00:59;;;;;;;5.63;2.35;;;;;;;;;;4991081;28;20420;-76
2024/02/09 08:03:26;;;;;;;5.53;2.25;;;;;;;;;;4997899;28;20136;-76
2024/02/09 08:05:53;;;;;;;6.97;2.58;;;;;;;;;;4983445;28;20074;-75
2024/02/09 08:08:20;;;;;;;11.48;3.63;;;;;;;;;;4996760;28;20077;-76
2024/02/09 08:10:48;;;;;;;5.00;2.30;;;;;;;;;;4984307;28;20153;-76
2024/02/09 08:13:15;;;;;;;7.78;2.50;;;;;;;;;;4983686;28;20061;-77
2024/02/09 08:15:42;;;;;;;6.78;2.65;;;;;;;;;;4983784;28;20045;-75
2024/02/09 08:18:08;;;;;;;9.40;3.17;;;;;;;;;;4990120;28;20120;-75
2024/02/09 08:20:36;;;;;;;11.75;3.00;;;;;;;;;;4989407;28;20407;-75
2024/02/09 08:23:03;;;;;;;8.57;2.78;;;;;;;;;;4978435;28;20048;-76
2024/02/09 08:25:30;;;;;;;6.32;3.42;;;;;;;;;;4973482;28;20068;-76
2024/02/09 08:27:56;;;;;;;6.53;2.83;;;;;;;;;;5007896;28;20439;-75
2024/02/09 08:30:23;;;;;;;7.63;2.80;;;;;;;;;;4981567;28;20073;-74
2024/02/09 08:32:49;;;;;;;5.53;2.70;;;;;;;;;;4988682;28;20061;-74
2024/02/09 08:35:16;;;;;;;10.90;2.75;;;;;;;;;;4982564;28;20041;-74
2024/02/09 08:37:42;;;;;;;9.52;3.33;;;;;;;;;;5002586;28;20378;-74
2024/02/09 08:40:09;;;;;;;5.90;2.70;;;;;;;;;;4989964;28;20049;-74
2024/02/09 08:42:35;;;;;;;5.57;2.85;;;;;;;;;;4998286;28;20128;-74
2024/02/09 08:45:02;;;;;;;11.18;2.70;;;;;;;;;;5001997;28;20046;-74
2024/02/09 08:47:34;;;;;;;9.63;3.10;;;;;;;;;;4993713;28;20042;-74
2024/02/09 08:50:00;;;;;;;9.85;3.03;;;;;;;;;;4982187;28;20056;-74
2024/02/09 08:52:30;;;;;;;7.75;2.70;;;;;;;;;;5006467;28;20081;-74
2024/02/09 08:54:57;;;;;;;9.93;2.83;;;;;;;;;;4985760;28;20053;-73
2024/02/09 08:57:23;;;;;;;7.63;2.55;;;;;;;;;;4995797;28;20062;-73
2024/02/09 08:59:49;;;;;;;11.38;2.83;;;;;;;;;;4993572;28;20065;-73
2024/02/09 09:02:16;;;;;;;8.27;2.95;;;;;;;;;;4999265;28;20112;-74
2024/02/09 09:04:42;;;;;;;7.00;2.53;;;;;;;;;;4993249;28;20046;-74
2024/02/09 09:07:10;;;;;;;8.43;3.03;;;;;;;;;;4997323;28;20050;-74
2024/02/09 09:09:36;;;;;;;6.68;2.80;;;;;;;;;;4997205;28;20050;-73
2024/02/09 09:12:04;;;;;;;9.10;3.00;;;;;;;;;;4994025;28;20050;-74
2024/02/09 09:14:36;;;;;;;6.25;2.83;;;;;;;;;;4994286;28;20041;-74
2024/02/09 09:17:02;;;;;;;11.10;2.50;;;;;;;;;;4990719;28;20053;-74
2024/02/09 09:19:46;;;;;;;9.48;4.03;;;;;;;;;;4997580;28;20056;-74
2024/02/09 09:22:12;;;;;;;8.35;3.40;;;;;;;;;;4990050;28;20078;-74
2024/02/09 09:24:39;;;;;;;4.60;3.00;;;;;;;;;;4993171;28;20137;-74
2024/02/09 09:27:08;;;;;;;9.45;3.15;;;;;;;;;;4988306;28;20043;-74
2024/02/09 09:29:34;;;;;;;8.98;3.30;;;;;;;;;;4997562;28;20062;-74
2024/02/09 09:32:01;;;;;;;10.15;3.45;;;;;;;;;;5006706;28;20057;-74
2024/02/09 09:34:27;;;;;;;9.85;3.10;;;;;;;;;;5000843;28;20484;-74
2024/02/09 09:36:54;;;;;;;7.40;3.30;;;;;;;;;;5006341;28;20131;-74
2024/02/09 09:39:20;;;;;;;8.93;2.70;;;;;;;;;;5002917;28;20092;-74
2024/02/09 09:41:50;;;;;;;;;;;;;;;;;;4977524;28;20077;-74
2024/02/09 09:44:16;;;;;;;6.60;3.17;;;;;;;;;;5006298;28;20012;-74
2024/02/09 09:46:45;;;;;;;14.15;3.47;;;;;;;;;;5000790;28;20353;-75
2024/02/09 09:49:12;;;;;;;7.63;3.30;;;;;;;;;;5006247;28;20053;-75
2024/02/09 09:51:40;;;;;;;7.95;2.88;;;;;;;;;;5002307;28;20052;-75
2024/02/09 09:54:08;;;;;;;8.02;2.92;;;;;;;;;;4989085;28;20132;-74
2024/02/09 09:56:36;;;;;;;7.95;3.17;;;;;;;;;;4979037;28;20105;-74
2024/02/09 09:59:03;;;;;;;7.57;3.05;;;;;;;;;;5000786;28;20724;-74
2024/02/09 10:01:29;;;;;;;8.45;2.88;;;;;;;;;;4999698;28;20135;-73
2024/02/09 10:03:56;;;;;;;11.07;2.90;;;;;;;;;;4980141;28;20419;-74
2024/02/09 10:06:23;;;;;;;10.32;3.28;;;;;;;;;;5000886;28;20057;-74
2024/02/09 10:08:50;;;;;;;10.80;3.20;;;;;;;;;;4998627;28;20123;-74
2024/02/09 10:11:18;;;;;;;8.70;3.28;;;;;;;;;;4986771;28;20558;-74
2024/02/09 10:13:44;;;;;;;11.93;2.95;;;;;;;;;;4996276;28;20121;-74
2024/02/09 10:16:11;;;;;;;9.82;3.33;;;;;;;;;;4990436;28;20056;-74
2024/02/09 10:18:38;;;;;;;7.25;2.70;;;;;;;;;;4999047;28;20800;-73
2024/02/09 10:21:08;;;;;;;8.52;3.00;;;;;;;;;;4980761;28;20049;-75
2024/02/09 10:23:36;;;;;;;9.07;2.38;;;;;;;;;;4990929;28;20042;-74
2024/02/09 10:26:03;;;;;;;5.97;2.60;;;;;;;;;;5002722;28;20045;-74
2024/02/09 10:28:30;;;;;;;7.47;2.33;;;;;;;;;;4983184;28;20049;-74
2024/02/09 10:30:59;;;;;;;7.50;3.10;;;;;;;;;;5003235;28;20095;-72
2024/02/09 10:33:26;;;;;;;12.00;3.00;;;;;;;;;;4975482;28;20056;-74
2024/02/09 10:36:01;;;;;;;7.18;2.90;;;;;;;;;;5002827;28;20048;-74
2024/02/09 10:38:28;;;;;;;7.90;2.72;;;;;;;;;;4984970;28;20057;-74
2024/02/09 10:40:55;;;;;;;7.55;2.35;;;;;;;;;;5003011;28;20057;-74
2024/02/09 10:43:22;;;;;;;8.65;2.97;;;;;;;;;;5006442;28;20057;-75
2024/02/09 10:45:52;;;;;;;10.30;3.10;;;;;;;;;;4998578;28;20054;-75
2024/02/09 10:48:24;;;;;;;6.93;2.40;;;;;;;;;;4997142;28;20050;-74
2024/02/09 10:50:55;;;;;;;6.70;2.67;;;;;;;;;;4983012;28;20049;-74
2024/02/09 10:53:23;;;;;;;7.97;2.88;;;;;;;;;;4998615;28;20058;-74
2024/02/09 10:56:03;;;;;;;7.45;2.90;;;;;;;;;;4980801;28;20476;-74
2024/02/09 10:58:33;;;;;;;11.43;3.13;;;;;;;;;;5001671;28;20042;-74
2024/02/09 11:01:01;;;;;;;9.73;2.92;;;;;;;;;;4988887;28;20045;-74
2024/02/09 11:03:28;;;;;;;;;;;;;;;;;;4983714;28;20137;-74
2024/02/09 11:05:55;;;;;;;5.88;2.53;;;;;;;;;;5002566;28;19929;-74
2024/02/09 11:08:24;;;;;;;8.25;2.70;;;;;;;;;;4997944;28;20057;-74
2024/02/09 11:11:02;;;;;;;9.35;3.05;;;;;;;;;;5003431;28;20056;-74
2024/02/09 11:13:28;;;;;;;6.28;2.40;;;;;;;;;;5004945;28;20132;-73
2024/02/09 11:15:59;;;;;;;9.10;2.58;;;;;;;;;;4992350;28;20052;-73
2024/02/09 11:18:32;;;;;;;6.85;2.35;;;;;;;;;;5001416;28;20108;-72
2024/02/09 11:21:09;;;;;;;8.00;2.75;;;;;;;;;;4993487;28;20057;-73
2024/02/09 11:23:36;;;;;;;6.13;2.50;;;;;;;;;;4985178;28;20054;-72
2024/02/09 11:26:07;;;;;;;;;;;;;;;;;;5003008;28;20085;-73
2024/02/09 11:28:34;;;;;;;10.27;2.92;;;;;;;;;;4993720;28;19987;-73
2024/02/09 11:31:01;;;;;;;9.55;3.30;;;;;;;;;;5004774;28;20052;-73
2024/02/09 11:33:28;;;;;;;6.18;2.70;;;;;;;;;;4996945;28;20518;-73
2024/02/09 11:35:54;;;;;;;8.30;2.60;;;;;;;;;;4998091;28;20050;-73
2024/02/09 11:38:21;;;;;;;9.70;2.90;;;;;;;;;;4999311;28;20064;-73
2024/02/09 11:40:49;;;;;;;7.55;2.92;;;;;;;;;;5005129;28;20057;-73
2024/02/09 11:43:16;;;;;;;5.80;2.20;;;;;;;;;;4988667;28;20077;-73
2024/02/09 11:45:43;;;;;;;6.40;2.10;;;;;;;;;;4998670;28;20042;-72
2024/02/09 11:48:10;;;;;;;10.47;2.80;;;;;;;;;;4994130;28;20100;-73
2024/02/09 11:50:37;;;;;;;6.97;2.38;;;;;;;;;;4992472;28;20050;-74
2024/02/09 11:53:05;;;;;;;8.55;2.50;;;;;;;;;;4988161;28;20085;-72
2024/02/09 11:55:39;;;;;;;5.47;2.13;;;;;;;;;;4998262;28;20054;-72
2024/02/09 11:58:10;;;;;;;8.63;2.30;;;;;;;;;;4973547;28;20660;-73
2024/02/09 12:00:38;;;;;;;6.65;2.50;;;;;;;;;;5000262;28;20051;-73
2024/02/09 12:03:04;;;;;;;8.35;2.45;;;;;;;;;;4990061;28;20085;-73
2024/02/09 12:05:31;;;;;;;7.72;2.58;;;;;;;;;;4994593;28;20042;-73
2024/02/09 12:07:58;;;;;;;8.57;3.35;;;;;;;;;;4985644;28;20054;-72
2024/02/09 12:10:24;;;;;;;6.97;2.15;;;;;;;;;;4995790;28;20054;-74
2024/02/09 12:12:51;;;;;;;4.30;1.92;;;;;;;;;;5000102;28;20108;-73
2024/02/09 12:15:20;;;;;;;10.10;2.60;;;;;;;;;;4991333;28;20054;-72
2024/02/09 12:17:47;;;;;;;5.90;2.20;;;;;;;;;;4984351;28;20054;-73
2024/02/09 12:20:14;;;;;;;6.95;2.38;;;;;;;;;;4997801;28;20053;-73
2024/02/09 12:22:41;;;;;;;4.40;2.28;;;;;;;;;;5005522;28;20100;-75
2024/02/09 12:25:15;;;;;;;4.28;2.08;;;;;;;;;;5000490;28;20694;-73
2024/02/09 12:27:41;;;;;;;7.10;2.50;;;;;;;;;;4986592;28;20675;-73
2024/02/09 12:30:09;;;;;;;9.63;2.20;;;;;;;;;;4976825;28;20112;-72
2024/02/09 12:32:39;;;;;;;6.10;2.28;;;;;;;;;;4984877;28;20145;-73
2024/02/09 12:35:07;;;;;;;6.65;2.03;;;;;;;;;;5003318;28;20049;-73
2024/02/09 12:37:34;;;;;;;6.32;2.17;;;;;;;;;;5000808;28;20056;-73
2024/02/09 12:40:04;;;;;;;4.65;2.03;;;;;;;;;;4988418;28;20412;-72
2024/02/09 12:42:31;;;;;;;4.22;2.13;;;;;;;;;;5000520;28;20054;-73
2024/02/09 12:45:01;;;;;;;7.45;2.45;;;;;;;;;;4978776;28;20625;-72
2024/02/09 12:47:29;;;;;;;6.75;2.30;;;;;;;;;;4995012;28;20720;-73
2024/02/09 12:49:56;;;;;;;4.78;1.98;;;;;;;;;;4998975;28;20476;-72
2024/02/09 12:52:27;;;;;;;6.53;2.05;;;;;;;;;;4993903;28;20046;-72
2024/02/09 12:54:54;;;;;;;8.35;2.08;;;;;;;;;;4986752;28;20053;-72
2024/02/09 12:57:22;;;;;;;5.50;1.90;;;;;;;;;;4988505;28;20053;-72
2024/02/09 12:59:48;;;;;;;8.38;2.58;;;;;;;;;;5002690;28;20069;-72
2024/02/09 13:02:17;;;;;;;9.35;2.17;;;;;;;;;;5003382;28;20436;-72
2024/02/09 13:04:43;;;;;;;3.92;1.70;;;;;;;;;;4997054;28;20120;-73
2024/02/09 13:07:10;;;;;;;7.07;2.10;;;;;;;;;;4997423;28;20058;-71
2024/02/09 13:09:36;;;;;;;6.22;2.20;;;;;;;;;;5009247;28;20396;-73
2024/02/09 13:12:03;;;;;;;5.47;1.80;;;;;;;;;;4994066;28;20444;-71
2024/02/09 13:14:29;;;;;;;7.18;2.40;;;;;;;;;;4983731;28;20041;-71
2024/02/09 13:16:57;;;;;;;6.30;2.05;;;;;;;;;;5000892;28;20045;-72
2024/02/09 13:19:23;;;;;;;9.02;1.98;;;;;;;;;;5005453;28;20050;-73
2024/02/09 13:21:52;;;;;;;5.45;2.10;;;;;;;;;;5009988;28;20104;-72
2024/02/09 13:24:20;;;;;;;8.50;2.05;;;;;;;;;;4987052;28;20050;-72
2024/02/09 13:26:53;;;;;;;8.30;2.35;;;;;;;;;;5001756;28;20050;-73
2024/02/09 13:29:26;;;;;;;4.90;1.75;;;;;;;;;;5001371;28;20188;-72
2024/02/09 13:31:53;;;;;;;5.32;1.90;;;;;;;;;;5004469;28;20096;-72
2024/02/09 13:34:21;;;;;;;8.85;2.47;;;;;;;;;;5007583;28;20050;-71
2024/02/09 13:36:48;;;;;;;5.60;1.88;;;;;;;;;;5001441;28;20092;-71
2024/02/09 13:39:14;;;;;;;5.57;2.00;;;;;;;;;;4995066;28;20046;-72
2024/02/09 13:41:42;;;;;;;7.65;2.35;;;;;;;;;;4998969;28;20078;-70
2024/02/09 13:44:08;;;;;;;12.07;2.53;;;;;;;;;;4985934;28;20073;-72
2024/02/09 13:46:35;;;;;;;10.05;2.35;;;;;;;;;;4992937;28;20104;-72
2024/02/09 13:49:02;;;;;;;7.35;2.63;;;;;;;;;;5006182;28;20042;-71
2024/02/09 13:51:29;;;;;;;6.93;2.10;;;;;;;;;;5009262;28;20044;-72
2024/02/09 13:53:56;;;;;;;6.90;2.03;;;;;;;;;;4979508;28;20329;-73
2024/02/09 13:56:23;;;;;;;8.07;2.78;;;;;;;;;;5005469;28;20136;-72
2024/02/09 13:58:49;;;;;;;10.45;2.72;;;;;;;;;;5009253;28;20084;-72
2024/02/09 14:01:18;;;;;;;6.82;3.00;;;;;;;;;;5004460;28;20507;-71
2024/02/09 14:03:44;;;;;;;;;;;;;;;;;;4992598;28;20073;-72
2024/02/09 14:06:11;;;;;;;8.82;3.42;;;;;;;;;;4994513;28;19948;-72
2024/02/09 14:08:38;;;;;;;15.35;4.40;;;;;;;;;;5006236;28;20720;-72
2024/02/09 14:11:05;;;;;;;6.82;2.40;;;;;;;;;;5003545;28;20049;-73
2024/02/09 14:13:31;;;;;;;5.05;2.10;;;;;;;;;;5003290;28;20176;-71
2024/02/09 14:15:58;;;;;;;6.80;2.70;;;;;;;;;;4990731;28;20144;-72
2024/02/09 14:18:26;;;;;;;8.38;2.78;;;;;;;;;;4986492;28;20046;-72
2024/02/09 14:20:53;;;;;;;4.20;2.28;;;;;;;;;;5006726;28;20041;-72
2024/02/09 14:23:19;;;;;;;9.30;3.10;;;;;;;;;;5006063;28;20041;-71
2024/02/09 14:25:47;;;;;;;7.53;3.03;;;;;;;;;;4970801;28;20063;-72
2024/02/09 14:28:14;;;;;;;7.55;2.90;;;;;;;;;;4988353;28;20451;-72
2024/02/09 14:30:42;;;;;;;7.17;2.33;;;;;;;;;;4978371;28;20046;-72
2024/02/09 14:33:08;;;;;;;5.03;2.25;;;;;;;;;;4991723;28;20325;-72
2024/02/09 14:35:35;;;;;;;8.85;3.10;;;;;;;;;;4987822;28;20372;-74
2024/02/09 14:38:01;;;;;;;7.75;2.58;;;;;;;;;;5002285;28;20046;-72
2024/02/09 14:40:30;;;;;;;5.53;2.42;;;;;;;;;;5000276;28;20058;-72
2024/02/09 14:42:57;;;;;;;7.15;2.88;;;;;;;;;;4982929;28;20057;-71
2024/02/09 14:45:23;;;;;;;7.90;2.80;;;;;;;;;;4990680;28;20068;-72
2024/02/09 14:47:50;;;;;;;8.52;2.85;;;;;;;;;;4981236;28;20046;-71
2024/02/09 14:50:18;;;;;;;8.43;1.98;;;;;;;;;;4991919;28;20099;-71
2024/02/09 14:52:45;;;;;;;5.18;2.47;;;;;;;;;;4998988;28;20567;-71
2024/02/09 14:55:16;;;;;;;5.72;1.98;;;;;;;;;;5000960;28;20038;-71
2024/02/09 14:57:43;;;;;;;8.00;2.30;;;;;;;;;;5006752;28;20073;-71
2024/02/09 15:00:13;;;;;;;5.75;2.65;;;;;;;;;;4997179;28;20045;-71
2024/02/09 15:02:43;;;;;;;7.85;3.47;;;;;;;;;;5007693;28;20053;-71
2024/02/09 15:05:13;;;;;;;8.00;2.63;;;;;;;;;;5004230;28;20047;-72
2024/02/09 15:07:43;;;;;;;6.47;2.47;;;;;;;;;;4982764;28;20045;-71
2024/02/09 15:10:10;;;;;;;4.55;2.03;;;;;;;;;;5000608;28;20145;-72
2024/02/09 15:12:36;;;;;;;5.95;2.17;;;;;;;;;;5007299;28;20144;-71
2024/02/09 15:15:03;;;;;;;4.15;1.90;;;;;;;;;;5002152;28;20128;-74
2024/02/09 15:17:29;;;;;;;6.65;1.85;;;;;;;;;;5003588;28;20069;-74
2024/02/09 15:19:56;;;;;;;7.93;2.75;;;;;;;;;;5004958;28;20051;-73
2024/02/09 15:22:22;;;;;;;5.18;2.42;;;;;;;;;;5013902;28;20053;-72
2024/02/09 15:24:49;;;;;;;4.18;1.80;;;;;;;;;;4992089;28;20058;-73
2024/02/09 15:27:15;;;;;;;5.28;2.08;;;;;;;;;;5003927;28;20380;-73
2024/02/09 15:29:42;;;;;;;6.53;2.17;;;;;;;;;;5003517;28;20042;-71
2024/02/09 15:32:13;;;;;;;5.50;2.05;;;;;;;;;;5005247;28;20089;-71
2024/02/09 15:34:44;;;;;;;5.82;2.10;;;;;;;;;;4973396;28;20512;-73
2024/02/09 15:37:14;;;;;;;2.55;1.60;;;;;;;;;;4975742;28;20483;-71
2024/02/09 15:39:41;;;;;;;8.30;1.83;;;;;;;;;;5000933;28;20068;-71
2024/02/09 15:42:08;;;;;;;6.22;1.80;;;;;;;;;;5002249;28;20621;-70
2024/02/09 15:44:36;;;;;;;5.23;1.90;;;;;;;;;;5007092;28;20092;-71
2024/02/09 15:47:02;;;;;;;6.97;1.90;;;;;;;;;;5002925;28;20139;-71
2024/02/09 15:49:29;;;;;;;8.95;2.25;;;;;;;;;;4973912;28;20061;-73
2024/02/09 15:51:55;;;;;;;3.58;1.50;;;;;;;;;;5005149;28;20062;-71
2024/02/09 15:54:22;;;;;;;5.82;1.60;;;;;;;;;;4978024;28;20107;-74
2024/02/09 15:56:48;;;;;;;4.80;1.50;;;;;;;;;;5004477;28;20058;-74
2024/02/09 15:59:15;;;;;;;3.75;1.80;;;;;;;;;;4997352;28;20467;-74
2024/02/09 16:01:43;;;;;;;4.88;1.38;;;;;;;;;;5003799;28;20053;-74
2024/02/09 16:04:10;;;;;;;5.63;1.80;;;;;;;;;;4976810;28;20043;-75
2024/02/09 16:06:36;;;;;;;5.07;1.77;;;;;;;;;;5000501;28;20053;-74
2024/02/09 16:09:03;;;;;;;5.88;1.98;;;;;;;;;;5005573;28;20056;-74
2024/02/09 16:11:33;;;;;;;5.50;1.80;;;;;;;;;;4996624;28;20069;-74
2024/02/09 16:14:01;;;;;;;5.15;2.13;;;;;;;;;;4998821;28;20054;-74
2024/02/09 16:16:28;;;;;;;4.97;1.83;;;;;;;;;;4980753;28;20478;-75
2024/02/09 16:18:56;;;;;;;5.80;1.80;;;;;;;;;;4994264;28;20524;-74
2024/02/09 16:21:22;;;;;;;6.60;1.75;;;;;;;;;;4986031;28;20057;-74
2024/02/09 16:23:49;;;;;;;5.88;2.28;;;;;;;;;;4997990;28;20077;-73
2024/02/09 16:26:24;;;;;;;7.47;2.17;;;;;;;;;;5002167;28;20394;-74
2024/02/09 16:28:50;;;;;;;9.38;2.50;;;;;;;;;;4985193;28;20562;-74
2024/02/09 16:31:17;;;;;;;7.85;2.78;;;;;;;;;;4976706;28;20133;-74